Time;durP1;ratioP1;P1;durP2;ratioP2;P2;SDS_P1;SDS_P2;PMS_P1;PMS_P2;Temp;Humidity;BMP_temperature;BMP_pressure;BME280_temperature;BME280_humidity;BME280_pressure;Samples;Min_cycle;Max_cycle;Signal;HPM_P1;HPM_P2
2022/12/04 00:00:09;;;;;;;0.90;0.60;;;;;;;7.41;97.12;100715.53;5089078;28;20032;-74
2022/12/04 00:02:35;;;;;;;1.65;0.50;;;;;;;7.41;98.57;100710.34;5085919;28;20473;-74
2022/12/04 00:05:02;;;;;;;1.75;0.45;;;;;;;7.49;96.96;100700.22;5090679;28;20024;-73
2022/12/04 00:07:27;;;;;;;1.00;0.50;;;;;;;7.47;97.18;100692.56;5081574;28;20028;-73
2022/12/04 00:09:53;;;;;;;1.35;0.60;;;;;;;7.48;96.80;100698.56;5086877;28;20047;-74
2022/12/04 00:12:18;;;;;;;0.95;0.60;;;;;;;7.51;95.81;100693.97;5071046;28;20148;-74
2022/12/04 00:14:44;;;;;;;1.42;0.50;;;;;;;7.59;93.23;100686.41;5089932;28;20026;-74
2022/12/04 00:17:09;;;;;;;0.80;0.40;;;;;;;7.62;95.26;100680.97;5085910;28;20821;-73
2022/12/04 00:19:34;;;;;;;2.28;0.40;;;;;;;7.62;93.20;100685.34;5087879;28;20032;-74
2022/12/04 00:22:00;;;;;;;1.35;0.43;;;;;;;7.68;92.43;100697.00;5090711;28;20031;-74
2022/12/04 00:24:25;;;;;;;0.60;0.50;;;;;;;7.70;92.00;100702.91;5088213;28;20039;-73
2022/12/04 00:26:51;;;;;;;1.52;0.60;;;;;;;7.74;91.45;100697.34;5095014;28;20089;-73
2022/12/04 00:29:17;;;;;;;1.83;0.30;;;;;;;7.73;91.32;100681.91;5087990;28;20371;-73
2022/12/04 00:31:43;;;;;;;0.77;0.55;;;;;;;7.70;92.05;100674.38;5070865;28;20036;-74
2022/12/04 00:34:09;;;;;;;1.20;0.50;;;;;;;7.63;94.27;100668.84;5094125;28;20333;-74
2022/12/04 00:36:34;;;;;;;0.50;0.30;;;;;;;7.63;93.03;100671.44;5090013;28;20050;-73
2022/12/04 00:39:00;;;;;;;0.65;0.30;;;;;;;7.63;93.25;100667.06;5082958;28;20030;-73
2022/12/04 00:41:28;;;;;;;0.88;0.50;;;;;;;7.85;90.18;100652.41;5087805;28;20098;-73
2022/12/04 00:43:53;;;;;;;0.73;0.32;;;;;;;7.90;89.60;100650.28;5085330;28;20123;-73
2022/12/04 00:46:20;;;;;;;0.60;0.30;;;;;;;7.96;88.09;100649.78;5095455;28;20118;-73
2022/12/04 00:48:46;;;;;;;2.38;0.28;;;;;;;8.03;86.13;100645.75;5090148;28;20051;-73
2022/12/04 00:51:19;;;;;;;1.60;0.40;;;;;;;7.98;88.50;100640.09;5095277;28;20138;-74
2022/12/04 00:53:45;;;;;;;0.80;0.40;;;;;;;7.97;88.02;100647.06;5083859;28;20051;-73
2022/12/04 00:56:14;;;;;;;1.10;0.38;;;;;;;7.97;87.15;100651.44;5090815;28;20051;-74
2022/12/04 00:58:40;;;;;;;0.90;0.30;;;;;;;7.94;86.73;100654.28;5080288;28;20390;-74
2022/12/04 01:01:12;;;;;;;1.60;0.32;;;;;;;7.88;86.36;100653.00;5094534;28;20130;-74
2022/12/04 01:03:38;;;;;;;1.15;0.35;;;;;;;7.87;87.93;100645.31;5094185;28;20107;-74
2022/12/04 01:06:05;;;;;;;0.73;0.32;;;;;;;7.81;87.21;100648.41;5096108;28;20464;-74
2022/12/04 01:08:31;;;;;;;0.60;0.40;;;;;;;7.89;87.21;100659.00;5091006;28;20119;-74
2022/12/04 01:10:57;;;;;;;0.57;0.30;;;;;;;8.02;86.55;100649.28;5091078;28;20089;-73
2022/12/04 01:13:23;;;;;;;0.70;0.30;;;;;;;8.04;86.42;100647.38;5090219;28;20045;-74
2022/12/04 01:15:49;;;;;;;0.95;0.30;;;;;;;8.01;86.08;100649.41;5097752;28;20028;-73
2022/12/04 01:18:15;;;;;;;0.70;0.40;;;;;;;7.96;87.63;100658.41;5095843;28;20038;-74
2022/12/04 01:20:49;;;;;;;0.85;0.40;;;;;;;8.04;86.51;100655.16;5088686;28;20027;-74
2022/12/04 01:23:16;;;;;;;1.42;0.40;;;;;;;8.09;87.49;100649.59;5084754;28;20054;-74
2022/12/04 01:25:53;;;;;;;1.08;0.40;;;;;;;8.14;85.30;100642.25;5077117;28;20052;-74
2022/12/04 01:28:18;;;;;;;0.88;0.40;;;;;;;8.08;87.15;100650.53;5065211;28;20124;-73
2022/12/04 01:30:44;;;;;;;0.85;0.30;;;;;;;8.07;86.78;100647.13;5069275;28;20123;-73
2022/12/04 01:33:09;;;;;;;0.57;0.30;;;;;;;8.08;87.37;100640.16;5069706;28;20039;-73
2022/12/04 01:35:34;;;;;;;0.70;0.30;;;;;;;8.11;87.44;100632.13;5066828;28;20438;-74
2022/12/04 01:38:00;;;;;;;1.13;0.85;;;;;;;8.06;86.98;100624.72;5068874;28;20028;-73
2022/12/04 01:40:25;;;;;;;0.75;0.30;;;;;;;8.02;86.94;100620.75;5068015;28;20173;-74
2022/12/04 01:42:51;;;;;;;1.05;0.55;;;;;;;7.90;89.98;100634.72;5069462;28;20383;-74
2022/12/04 01:45:38;;;;;;;1.40;0.60;;;;;;;7.71;92.23;100630.16;5068158;28;20396;-74
2022/12/04 01:48:20;;;;;;;1.50;0.50;;;;;;;7.67;91.98;100628.75;5062914;28;20352;-74
2022/12/04 01:50:48;;;;;;;1.02;0.45;;;;;;;7.74;94.29;100629.09;5065857;28;20078;-74
2022/12/04 01:53:14;;;;;;;1.20;0.55;;;;;;;7.66;95.95;100621.91;5064768;28;20040;-74
2022/12/04 01:55:42;;;;;;;1.30;0.70;;;;;;;7.56;97.82;100616.63;5069584;28;20021;-74
2022/12/04 01:58:09;;;;;;;2.92;1.40;;;;;;;7.47;100.00;100621.75;5068395;28;20032;-73
2022/12/04 02:00:34;;;;;;;4.15;2.58;;;;;;;7.38;100.00;100627.63;5067690;28;20025;-74
2022/12/04 02:03:00;;;;;;;2.75;1.00;;;;;;;7.45;100.00;100618.44;5068685;28;20032;-74
2022/12/04 02:05:26;;;;;;;2.92;1.75;;;;;;;7.42;100.00;100614.31;5068100;28;20353;-74
2022/12/04 02:07:57;;;;;;;2.45;1.48;;;;;;;7.38;100.00;100612.91;5068210;28;20047;-74
2022/12/04 02:10:32;;;;;;;3.00;1.90;;;;;;;7.32;100.00;100615.97;5068101;28;20032;-73
2022/12/04 02:13:10;;;;;;;6.15;1.88;;;;;;;7.26;100.00;100619.06;5066976;28;20075;-73
2022/12/04 02:15:51;;;;;;;5.70;2.13;;;;;;;7.16;100.00;100618.13;5067613;28;20021;-73
2022/12/04 02:18:27;;;;;;;3.22;2.08;;;;;;;7.06;100.00;100618.03;5046806;28;20143;-73
2022/12/04 02:21:12;;;;;;;3.75;1.77;;;;;;;7.05;100.00;100615.56;5068117;28;20039;-73
2022/12/04 02:23:57;;;;;;;3.70;2.38;;;;;;;7.02;100.00;100621.78;5068693;28;20040;-73
2022/12/04 02:26:41;;;;;;;5.03;2.85;;;;;;;6.89;100.00;100618.47;5077124;28;20039;-74
2022/12/04 02:29:21;;;;;;;3.95;2.40;;;;;;;6.83;100.00;100611.19;5087892;28;20024;-73
2022/12/04 02:31:58;;;;;;;4.55;2.33;;;;;;;6.86;100.00;100611.78;5088683;28;20384;-73
2022/12/04 02:34:44;;;;;;;3.97;2.83;;;;;;;6.82;100.00;100609.53;5086844;28;20488;-73
2022/12/04 02:37:14;;;;;;;;;;;;;;;6.76;100.00;100610.81;5088156;28;20035;-73
2022/12/04 02:40:01;;;;;;;4.47;2.67;;;;;;;6.76;100.00;100610.00;5084911;28;19970;-73
2022/12/04 02:42:41;;;;;;;5.60;2.58;;;;;;;6.77;100.00;100616.81;5085392;28;20032;-73
2022/12/04 02:45:25;;;;;;;6.32;2.78;;;;;;;6.73;100.00;100616.22;5089456;28;20027;-73
2022/12/04 02:47:53;;;;;;;5.03;3.08;;;;;;;6.65;100.00;100611.63;5087866;28;20050;-73
2022/12/04 02:50:22;;;;;;;8.25;3.97;;;;;;;6.56;100.00;100619.28;5086907;28;20105;-73
2022/12/04 02:52:53;;;;;;;5.80;4.40;;;;;;;6.50;100.00;100615.38;5069715;28;20348;-73
2022/12/04 02:55:25;;;;;;;5.82;3.38;;;;;;;6.45;100.00;100598.53;5068595;28;20058;-73
2022/12/04 02:57:57;;;;;;;5.38;3.28;;;;;;;6.38;100.00;100603.34;5073138;28;20116;-73
2022/12/04 03:00:23;;;;;;;5.30;3.42;;;;;;;6.35;100.00;100589.81;5085489;28;20035;-74
2022/12/04 03:03:01;;;;;;;5.90;3.35;;;;;;;6.33;100.00;100587.34;5090772;28;20028;-73
2022/12/04 03:05:49;;;;;;;2.50;0.70;;;;;;;6.35;100.00;100582.06;5090323;28;20020;-73
2022/12/04 03:08:21;;;;;;;3.00;1.58;;;;;;;6.37;100.00;100569.81;5091760;28;20035;-72
2022/12/04 03:10:51;;;;;;;2.38;0.10;;;;;;;6.24;100.00;100547.44;5093190;28;20020;-72
2022/12/04 03:13:38;;;;;;;1.38;0.20;;;;;;;6.12;100.00;100537.22;5090245;28;20048;-71
2022/12/04 03:16:09;;;;;;;2.05;0.10;;;;;;;6.04;100.00;100540.38;5091793;28;20024;-72
2022/12/04 03:18:37;;;;;;;0.20;0.10;;;;;;;6.04;100.00;100542.13;5073176;28;20028;-72
2022/12/04 03:21:07;;;;;;;0.28;0.10;;;;;;;6.07;100.00;100560.00;5087949;28;20024;-72
2022/12/04 03:24:05;;;;;;;1.45;0.40;;;;;;;6.10;100.00;100544.25;5072877;28;23246;-72
2022/12/04 03:26:42;;;;;;;1.00;0.40;;;;;;;6.12;100.00;100558.72;5052760;28;20631;-72
2022/12/04 03:29:22;;;;;;;1.95;0.80;;;;;;;6.14;100.00;100556.03;5093869;28;20031;-71
2022/12/04 03:32:05;;;;;;;1.50;0.90;;;;;;;6.15;100.00;100561.06;5089295;28;20502;-72
2022/12/04 03:34:54;;;;;;;3.58;0.90;;;;;;;6.17;100.00;100556.59;5090352;28;20038;-72
2022/12/04 03:37:45;;;;;;;1.92;0.50;;;;;;;6.21;100.00;100552.84;5079137;28;20044;-72
2022/12/04 03:40:16;;;;;;;0.88;0.40;;;;;;;6.26;100.00;100549.91;5089854;28;20040;-71
2022/12/04 03:42:47;;;;;;;1.10;0.60;;;;;;;6.28;100.00;100537.69;5086478;28;20171;-71
2022/12/04 03:45:18;;;;;;;2.88;0.60;;;;;;;6.31;100.00;100537.47;5093577;28;20055;-72
2022/12/04 03:47:46;;;;;;;2.03;0.73;;;;;;;6.31;100.00;100547.81;5088265;28;20031;-72
2022/12/04 03:50:38;;;;;;;0.80;0.10;;;;;;;6.27;100.00;100531.69;5092460;28;20028;-72
2022/12/04 03:53:07;;;;;;;1.67;0.20;;;;;;;6.27;100.00;100530.88;5072059;28;20028;-72
2022/12/04 03:55:47;;;;;;;0.55;0.10;;;;;;;6.25;100.00;100517.22;5093248;28;25294;-72
2022/12/04 03:58:20;;;;;;;0.00;0.00;;;;;;;6.33;100.00;100518.28;5088927;28;20036;-72
2022/12/04 04:00:48;;;;;;;0.00;0.00;;;;;;;6.43;100.00;100504.66;5091308;28;20032;-71
2022/12/04 04:03:28;;;;;;;0.00;0.00;;;;;;;6.38;100.00;100489.47;5090419;28;20040;-72
2022/12/04 04:06:01;;;;;;;0.00;0.00;;;;;;;6.49;100.00;100493.84;5088620;28;20103;-71
2022/12/04 04:08:33;;;;;;;0.00;0.00;;;;;;;6.44;100.00;100480.44;5072435;28;20028;-72
2022/12/04 04:11:24;;;;;;;0.17;0.00;;;;;;;6.36;100.00;100481.00;5094545;28;20387;-72
2022/12/04 04:25:15;;;;;;;0.55;0.20;;;;;;;6.53;100.00;100484.91;5086892;28;20497;-71
2022/12/04 04:27:41;;;;;;;0.60;0.22;;;;;;;6.50;100.00;100498.09;5090982;28;20055;-72
2022/12/04 04:30:08;;;;;;;0.65;0.22;;;;;;;6.50;100.00;100487.72;5091360;28;20545;-72
2022/12/04 04:32:55;;;;;;;1.52;0.30;;;;;;;6.49;100.00;100488.66;5089768;28;20032;-72
2022/12/04 04:35:24;;;;;;;0.93;0.30;;;;;;;6.48;100.00;100487.03;5089154;28;20116;-72
2022/12/04 04:38:02;;;;;;;0.80;0.60;;;;;;;6.48;100.00;100487.84;5086322;28;20030;-72
2022/12/04 04:40:39;;;;;;;0.50;0.20;;;;;;;6.49;100.00;100484.31;5090815;28;20541;-72
2022/12/04 04:43:32;;;;;;;0.47;0.20;;;;;;;6.49;100.00;100492.06;5092749;28;20130;-72
2022/12/04 04:46:05;;;;;;;0.50;0.10;;;;;;;6.47;100.00;100480.19;5089989;28;20371;-72
2022/12/04 04:48:35;;;;;;;0.77;0.20;;;;;;;6.45;100.00;100484.66;5087541;28;20028;-72
2022/12/04 04:51:03;;;;;;;0.57;0.13;;;;;;;6.46;100.00;100468.19;5089136;28;20158;-72
2022/12/04 04:53:34;;;;;;;0.55;0.20;;;;;;;6.47;100.00;100456.91;5089982;28;20031;-72
2022/12/04 04:56:01;;;;;;;2.35;0.10;;;;;;;6.46;100.00;100470.78;5089101;28;20478;-72
2022/12/04 04:58:27;;;;;;;0.20;0.10;;;;;;;6.47;100.00;100475.84;5090069;28;20039;-72
2022/12/04 05:01:21;;;;;;;0.30;0.10;;;;;;;6.45;100.00;100462.19;5090502;28;20031;-72
2022/12/04 05:03:46;;;;;;;0.50;0.10;;;;;;;6.44;100.00;100465.72;5086759;28;20055;-72
2022/12/04 05:06:12;;;;;;;0.60;0.20;;;;;;;6.46;100.00;100461.25;5088610;28;20544;-72
2022/12/04 05:08:38;;;;;;;0.63;0.20;;;;;;;6.46;100.00;100463.84;5088996;28;20343;-73
2022/12/04 05:11:04;;;;;;;0.38;0.15;;;;;;;6.49;100.00;100449.84;5090160;28;20106;-72
2022/12/04 05:13:30;;;;;;;0.55;0.20;;;;;;;6.51;100.00;100447.97;5095529;28;20042;-73
2022/12/04 05:16:04;;;;;;;0.38;0.20;;;;;;;6.52;100.00;100447.00;5092064;28;20101;-72
2022/12/04 05:18:30;;;;;;;0.93;0.20;;;;;;;6.52;100.00;100445.25;5093679;28;20513;-73
2022/12/04 05:20:55;;;;;;;1.92;0.20;;;;;;;6.54;100.00;100450.31;5088536;28;20119;-72
2022/12/04 05:23:21;;;;;;;0.70;0.10;;;;;;;6.55;100.00;100447.59;5088669;28;20114;-73
2022/12/04 05:25:47;;;;;;;0.65;0.20;;;;;;;6.52;100.00;100457.38;5090115;28;20041;-72
2022/12/04 05:28:12;;;;;;;0.90;0.28;;;;;;;6.53;100.00;100448.66;5086139;28;20040;-73
2022/12/04 05:30:38;;;;;;;0.75;0.20;;;;;;;6.52;100.00;100468.56;5089028;28;20060;-73
2022/12/04 05:33:04;;;;;;;0.55;0.20;;;;;;;6.51;100.00;100472.06;5073549;28;20082;-73
2022/12/04 05:35:29;;;;;;;1.52;0.20;;;;;;;6.50;100.00;100461.84;5045939;28;20028;-73
2022/12/04 05:37:55;;;;;;;0.32;0.13;;;;;;;6.48;100.00;100474.06;5088658;28;20062;-73
2022/12/04 05:40:20;;;;;;;0.70;0.30;;;;;;;6.48;100.00;100467.13;5086772;28;20028;-73
2022/12/04 05:42:46;;;;;;;0.52;0.30;;;;;;;6.51;100.00;100473.84;5090119;28;20430;-73
2022/12/04 05:45:11;;;;;;;0.50;0.20;;;;;;;6.53;100.00;100464.19;5084963;28;20465;-72
2022/12/04 05:47:43;;;;;;;1.23;0.28;;;;;;;6.51;100.00;100460.91;5088476;28;20081;-73
2022/12/04 05:50:11;;;;;;;0.70;0.35;;;;;;;6.54;100.00;100458.06;5086847;28;20071;-73
2022/12/04 05:52:36;;;;;;;0.80;0.30;;;;;;;6.55;100.00;100457.13;5089492;28;20020;-73
2022/12/04 05:55:02;;;;;;;8.27;5.43;;;;;;;6.56;100.00;100461.38;5088993;28;20038;-72
2022/12/04 05:57:28;;;;;;;3.28;2.03;;;;;;;6.55;100.00;100454.53;5086432;28;20031;-73
2022/12/04 05:59:53;;;;;;;8.15;4.75;;;;;;;6.55;100.00;100451.97;5089145;28;20053;-73
2022/12/04 06:02:19;;;;;;;2.30;1.10;;;;;;;6.55;100.00;100449.38;5090662;28;20059;-73
2022/12/04 06:04:45;;;;;;;2.28;0.90;;;;;;;6.53;100.00;100443.50;5088685;28;20062;-73
2022/12/04 06:07:10;;;;;;;2.05;0.70;;;;;;;6.54;100.00;100445.97;5093809;28;20469;-73
2022/12/04 06:09:36;;;;;;;1.80;1.00;;;;;;;6.59;100.00;100455.97;5085902;28;20055;-73
2022/12/04 06:12:02;;;;;;;1.95;0.70;;;;;;;6.63;100.00;100459.94;5089671;28;20043;-72
2022/12/04 06:14:28;;;;;;;2.83;0.70;;;;;;;6.67;100.00;100456.16;5087915;28;20040;-73
2022/12/04 06:16:53;;;;;;;1.92;0.90;;;;;;;6.72;100.00;100448.84;5089480;28;20040;-73
2022/12/04 06:19:21;;;;;;;2.30;0.60;;;;;;;6.75;100.00;100453.78;5088765;28;20327;-73
2022/12/04 06:21:49;;;;;;;1.65;0.75;;;;;;;6.78;100.00;100445.78;5089714;28;20040;-73
2022/12/04 06:24:17;;;;;;;1.70;0.75;;;;;;;6.76;100.00;100459.81;5088638;28;20372;-73
2022/12/04 06:26:43;;;;;;;2.13;0.70;;;;;;;6.77;100.00;100454.50;5089106;28;20127;-73
2022/12/04 06:29:09;;;;;;;1.85;0.95;;;;;;;6.73;100.00;100460.88;5088719;28;20500;-73
2022/12/04 06:31:36;;;;;;;1.67;1.15;;;;;;;6.71;100.00;100467.94;5088122;28;20502;-73
2022/12/04 06:34:03;;;;;;;4.35;0.90;;;;;;;6.68;100.00;100465.56;5089372;28;20052;-73
2022/12/04 06:36:29;;;;;;;5.00;1.27;;;;;;;6.66;100.00;100470.88;5070163;28;20035;-73
2022/12/04 06:38:56;;;;;;;3.85;1.88;;;;;;;6.65;100.00;100463.22;5092732;28;20028;-73
2022/12/04 06:41:22;;;;;;;4.80;1.30;;;;;;;6.83;100.00;100458.38;5095931;28;20116;-75
2022/12/04 06:43:50;;;;;;;5.30;1.88;;;;;;;6.89;100.00;100450.94;5095252;28;20050;-74
2022/12/04 06:46:19;;;;;;;2.67;1.15;;;;;;;6.87;100.00;100446.84;5092479;28;20122;-75
2022/12/04 06:48:45;;;;;;;2.85;1.73;;;;;;;6.88;100.00;100454.50;5095574;28;20039;-74
2022/12/04 06:51:16;;;;;;;3.65;1.63;;;;;;;6.85;100.00;100448.72;5092077;28;20036;-74
2022/12/04 06:53:43;;;;;;;9.18;1.88;;;;;;;6.78;100.00;100456.16;5092233;28;20024;-74
2022/12/04 06:56:11;;;;;;;3.13;1.88;;;;;;;6.80;100.00;100456.84;5082925;28;20118;-74
2022/12/04 06:58:37;;;;;;;4.50;2.63;;;;;;;6.86;100.00;100458.97;5076532;28;20039;-74
2022/12/04 07:01:12;;;;;;;5.93;4.43;;;;;;;6.83;100.00;100460.97;5096551;28;20449;-74
2022/12/04 07:03:39;;;;;;;3.40;2.03;;;;;;;6.81;100.00;100458.50;5091917;28;20086;-74
2022/12/04 07:06:11;;;;;;;1.60;1.20;;;;;;;6.83;100.00;100456.63;5094813;28;20089;-74
2022/12/04 07:08:37;;;;;;;2.70;1.30;;;;;;;6.92;100.00;100457.66;5093785;28;20028;-74
2022/12/04 07:11:02;;;;;;;2.67;1.52;;;;;;;6.97;100.00;100451.19;5096762;28;20119;-74
2022/12/04 07:13:27;;;;;;;3.45;2.00;;;;;;;6.96;100.00;100452.13;5093454;28;20032;-74
2022/12/04 07:15:53;;;;;;;2.83;1.60;;;;;;;6.93;100.00;100449.78;5094094;28;20474;-73
2022/12/04 07:18:18;;;;;;;2.25;1.42;;;;;;;6.91;100.00;100443.88;5095143;28;20059;-74
2022/12/04 07:20:44;;;;;;;2.05;1.13;;;;;;;6.94;100.00;100438.47;5093687;28;20035;-74
2022/12/04 07:23:09;;;;;;;1.83;1.00;;;;;;;6.99;100.00;100445.88;5100516;28;20039;-75
2022/12/04 07:25:39;;;;;;;3.03;1.60;;;;;;;7.03;100.00;100451.63;5091894;28;20046;-74
2022/12/04 07:28:04;;;;;;;5.78;3.22;;;;;;;7.02;100.00;100444.81;5073870;28;20066;-74
2022/12/04 07:30:30;;;;;;;4.28;3.15;;;;;;;7.02;100.00;100444.81;5092173;28;20089;-74
2022/12/04 07:32:55;;;;;;;5.13;3.33;;;;;;;6.96;100.00;100443.53;5095419;28;20038;-74
2022/12/04 07:35:21;;;;;;;4.20;3.05;;;;;;;6.92;100.00;100450.72;5094619;28;20476;-74
2022/12/04 07:37:47;;;;;;;6.10;3.38;;;;;;;6.87;100.00;100462.38;5096032;28;20437;-74
2022/12/04 07:40:13;;;;;;;3.63;2.40;;;;;;;6.84;100.00;100467.78;5094636;28;20086;-74
2022/12/04 07:42:38;;;;;;;2.67;1.60;;;;;;;6.85;100.00;100462.50;5092218;28;20478;-74
2022/12/04 07:45:04;;;;;;;2.38;1.88;;;;;;;6.84;100.00;100468.63;5095210;28;20051;-74
2022/12/04 07:47:29;;;;;;;2.92;1.50;;;;;;;6.83;100.00;100472.16;5089001;28;20020;-74
2022/12/04 07:49:55;;;;;;;3.13;2.10;;;;;;;6.81;100.00;100483.56;5087245;28;20103;-75
2022/12/04 07:52:20;;;;;;;2.60;1.48;;;;;;;6.82;100.00;100495.56;5087384;28;20167;-74
2022/12/04 07:54:46;;;;;;;4.35;2.13;;;;;;;6.82;100.00;100501.59;5090855;28;20111;-74
2022/12/04 07:57:11;;;;;;;4.55;2.60;;;;;;;6.83;100.00;100502.41;5092114;28;20039;-74
2022/12/04 07:59:37;;;;;;;9.70;5.40;;;;;;;6.81;100.00;100505.13;5084126;28;20523;-74
2022/12/04 08:02:05;;;;;;;7.03;5.30;;;;;;;6.82;100.00;100508.53;5091020;28;20031;-75
2022/12/04 08:04:30;;;;;;;11.90;7.68;;;;;;;6.80;100.00;100518.19;5086014;28;20096;-74
2022/12/04 08:06:56;;;;;;;6.65;5.03;;;;;;;6.80;100.00;100526.78;5089395;28;20538;-75
2022/12/04 08:09:21;;;;;;;5.72;3.28;;;;;;;6.74;100.00;100524.66;5084732;28;20517;-74
2022/12/04 08:11:47;;;;;;;4.55;3.17;;;;;;;6.74;100.00;100523.84;5090742;28;20081;-74
2022/12/04 08:14:12;;;;;;;7.55;3.83;;;;;;;6.70;100.00;100527.59;5089801;28;20027;-75
2022/12/04 08:16:38;;;;;;;6.70;4.10;;;;;;;6.66;100.00;100527.00;5092947;28;20024;-74
2022/12/04 08:19:04;;;;;;;2.60;2.30;;;;;;;6.60;100.00;100530.91;5093150;28;20115;-73
2022/12/04 08:21:30;;;;;;;4.03;2.97;;;;;;;6.58;100.00;100544.91;5084544;28;20475;-73
2022/12/04 08:23:57;;;;;;;3.10;2.28;;;;;;;6.57;100.00;100538.09;5076500;28;20028;-73
2022/12/04 08:26:25;;;;;;;3.03;2.45;;;;;;;6.54;100.00;100546.09;5090292;28;20044;-73
2022/12/04 08:28:55;;;;;;;4.85;3.22;;;;;;;6.50;100.00;100548.09;5090450;28;20478;-73
2022/12/04 08:31:24;;;;;;;5.40;4.43;;;;;;;6.51;100.00;100546.31;5089056;28;20036;-73
2022/12/04 08:33:52;;;;;;;6.05;3.95;;;;;;;6.52;100.00;100550.56;5095245;28;20024;-73
2022/12/04 08:36:20;;;;;;;5.78;4.93;;;;;;;6.57;100.00;100559.63;5093490;28;20387;-73
2022/12/04 08:38:46;;;;;;;6.55;4.78;;;;;;;6.54;100.00;100556.44;5088277;28;20638;-73
2022/12/04 08:41:13;;;;;;;8.25;5.13;;;;;;;6.55;100.00;100566.69;5090251;28;20035;-73
2022/12/04 08:43:39;;;;;;;7.40;4.80;;;;;;;6.56;100.00;100567.50;5091222;28;20122;-73
2022/12/04 08:46:09;;;;;;;7.40;4.45;;;;;;;6.61;100.00;100576.56;5094124;28;20363;-73
2022/12/04 08:48:34;;;;;;;6.03;3.92;;;;;;;6.51;100.00;100565.25;5071659;28;21485;-73
2022/12/04 08:51:02;;;;;;;7.10;3.03;;;;;;;6.47;100.00;100563.84;5089610;28;20047;-72
2022/12/04 08:53:28;;;;;;;3.90;2.35;;;;;;;6.48;100.00;100573.25;5092339;28;20032;-73
2022/12/04 08:55:53;;;;;;;3.55;2.55;;;;;;;6.52;100.00;100550.56;5070633;28;20028;-74
2022/12/04 08:58:19;;;;;;;2.80;2.25;;;;;;;6.57;100.00;100562.22;5089182;28;20423;-72
2022/12/04 09:00:45;;;;;;;2.20;1.77;;;;;;;6.60;100.00;100566.34;5095614;28;20024;-72
2022/12/04 09:03:15;;;;;;;2.60;1.65;;;;;;;6.64;100.00;100570.31;5091904;28;20067;-72
2022/12/04 09:05:44;;;;;;;3.35;2.38;;;;;;;6.66;100.00;100569.25;5088180;28;20464;-72
2022/12/04 09:08:10;;;;;;;9.85;2.72;;;;;;;6.68;100.00;100574.31;5094642;28;20035;-73
2022/12/04 09:10:36;;;;;;;2.90;2.58;;;;;;;6.72;100.00;100578.31;5094536;28;20058;-73
2022/12/04 09:13:02;;;;;;;5.13;2.50;;;;;;;6.73;100.00;100574.78;5087870;28;20032;-73
2022/12/04 09:15:27;;;;;;;3.75;2.97;;;;;;;6.77;100.00;100576.22;5092102;28;20567;-73
2022/12/04 09:17:53;;;;;;;4.05;2.85;;;;;;;6.78;100.00;100564.91;5086834;28;20483;-73
2022/12/04 09:20:18;;;;;;;4.75;3.80;;;;;;;6.78;100.00;100571.84;5088221;28;20097;-73
2022/12/04 09:22:44;;;;;;;4.68;3.83;;;;;;;6.82;100.00;100568.91;5087210;28;20058;-73
2022/12/04 09:25:10;;;;;;;7.10;5.57;;;;;;;6.85;100.00;100563.50;5087796;28;20076;-73
2022/12/04 09:27:37;;;;;;;6.45;5.15;;;;;;;6.88;100.00;100558.09;5087868;28;20496;-72
2022/12/04 09:30:08;;;;;;;6.45;5.20;;;;;;;6.89;100.00;100562.31;5088011;28;20078;-73
2022/12/04 09:32:33;;;;;;;8.85;6.55;;;;;;;6.90;100.00;100561.38;5075921;28;20051;-73
2022/12/04 09:34:59;;;;;;;9.30;7.07;;;;;;;6.98;100.00;100564.22;5086963;28;20028;-73
2022/12/04 09:37:24;;;;;;;11.13;7.60;;;;;;;7.03;100.00;100571.63;5091101;28;20346;-73
2022/12/04 09:39:50;;;;;;;9.82;7.18;;;;;;;7.03;100.00;100571.63;5086252;28;20070;-73
2022/12/04 09:42:38;;;;;;;13.27;8.07;;;;;;;7.03;100.00;100565.63;5091005;28;20035;-73
2022/12/04 09:45:14;;;;;;;10.52;6.90;;;;;;;7.04;100.00;100562.09;5084102;28;20549;-72
2022/12/04 09:47:47;;;;;;;16.10;13.68;;;;;;;7.07;100.00;100554.91;5087798;28;20052;-73
2022/12/04 09:50:21;;;;;;;9.93;6.82;;;;;;;7.07;100.00;100554.91;5083179;28;20036;-73
2022/12/04 09:52:49;;;;;;;9.98;7.65;;;;;;;7.09;100.00;100547.81;5095085;28;20027;-73
2022/12/04 09:55:23;;;;;;;10.27;7.30;;;;;;;7.14;100.00;100550.03;5094976;28;20045;-73
2022/12/04 09:57:51;;;;;;;8.52;6.32;;;;;;;7.22;100.00;100550.25;5095581;28;20031;-73
2022/12/04 10:00:19;;;;;;;8.90;7.82;;;;;;;7.32;100.00;100546.00;5090295;28;20031;-72
2022/12/04 10:02:51;;;;;;;7.57;6.80;;;;;;;7.45;100.00;100551.88;5074373;28;20032;-73
2022/12/04 10:05:29;;;;;;;8.30;6.97;;;;;;;7.52;100.00;100549.63;5070483;28;20028;-73
2022/12/04 10:08:28;;;;;;;8.40;6.60;;;;;;;7.61;100.00;100535.88;5088677;28;20032;-72
2022/12/04 10:11:08;;;;;;;10.55;7.32;;;;;;;7.78;100.00;100534.53;5091381;28;20035;-73
2022/12/04 10:13:56;;;;;;;10.68;8.57;;;;;;;7.88;100.00;100543.22;5085295;28;20035;-73
2022/12/04 10:16:37;;;;;;;8.82;7.65;;;;;;;7.89;100.00;100539.66;5092022;28;20040;-74
2022/12/04 10:19:18;;;;;;;11.48;8.60;;;;;;;7.95;100.00;100544.34;5091638;28;20047;-73
2022/12/04 10:22:02;;;;;;;11.02;9.23;;;;;;;8.11;100.00;100523.97;5090733;28;20158;-72
2022/12/04 10:24:48;;;;;;;13.90;11.32;;;;;;;8.05;100.00;100527.06;5088966;28;20027;-72
2022/12/04 10:27:38;;;;;;;6.63;4.20;;;;;;;7.93;100.00;100525.50;5087403;28;20040;-73
2022/12/04 10:30:15;;;;;;;3.40;2.22;;;;;;;7.73;100.00;100519.34;5090047;28;20474;-73
2022/12/04 10:32:44;;;;;;;3.42;2.13;;;;;;;7.79;100.00;100520.63;5081166;28;20038;-72
2022/12/04 10:35:18;;;;;;;3.92;2.75;;;;;;;7.78;100.00;100535.34;5092372;28;20032;-72
2022/12/04 10:37:46;;;;;;;3.13;2.83;;;;;;;7.87;100.00;100528.59;5094178;28;20092;-73
2022/12/04 10:40:24;;;;;;;2.30;1.67;;;;;;;7.91;100.00;100532.59;5094852;28;20032;-72
2022/12/04 10:43:01;;;;;;;3.22;2.17;;;;;;;7.91;100.00;100535.19;5098368;28;20122;-72
2022/12/04 10:45:26;;;;;;;2.65;1.88;;;;;;;7.96;100.00;100533.03;5088247;28;20024;-72
2022/12/04 10:47:52;;;;;;;1.65;0.73;;;;;;;7.78;100.00;100526.75;5092585;28;20478;-73
2022/12/04 10:50:21;;;;;;;2.38;0.43;;;;;;;7.69;100.00;100525.72;5098251;28;20031;-73
2022/12/04 10:52:48;;;;;;;1.83;0.40;;;;;;;7.59;100.00;100528.22;5094407;28;20038;-73
2022/12/04 10:55:14;;;;;;;0.93;0.55;;;;;;;7.60;100.00;100529.06;5089031;28;20035;-72
2022/12/04 10:57:44;;;;;;;1.58;0.80;;;;;;;7.63;100.00;100529.63;5096662;28;20028;-72
2022/12/04 11:00:26;;;;;;;2.53;0.80;;;;;;;7.63;100.00;100534.81;5087437;28;20024;-73
2022/12/04 11:02:54;;;;;;;1.05;0.60;;;;;;;7.56;100.00;100528.47;5095825;28;20024;-73
2022/12/04 11:05:28;;;;;;;1.98;0.60;;;;;;;7.50;100.00;100529.00;5092892;28;20126;-73
2022/12/04 11:07:55;;;;;;;1.85;0.70;;;;;;;7.52;100.00;100528.88;5091738;28;20024;-74
2022/12/04 11:10:28;;;;;;;0.88;0.50;;;;;;;7.43;100.00;100527.84;5091607;28;20032;-73
2022/12/04 11:12:54;;;;;;;1.58;0.45;;;;;;;7.43;100.00;100525.25;5093105;28;20115;-74
2022/12/04 11:15:20;;;;;;;1.20;0.50;;;;;;;7.40;100.00;100530.66;5090619;28;20470;-75
2022/12/04 11:17:45;;;;;;;2.45;0.50;;;;;;;7.43;100.00;100524.41;5078345;28;20119;-71
2022/12/04 11:20:25;;;;;;;1.02;0.50;;;;;;;7.45;100.00;100520.75;5091247;28;20402;-73
2022/12/04 11:22:58;;;;;;;3.17;0.70;;;;;;;7.40;100.00;100529.84;5093008;28;20545;-73
2022/12/04 11:25:27;;;;;;;1.00;0.50;;;;;;;7.41;100.00;100534.91;5088289;28;20044;-73
2022/12/04 11:27:55;;;;;;;1.10;0.60;;;;;;;7.40;100.00;100538.44;5090020;28;20453;-72
2022/12/04 11:30:28;;;;;;;1.20;0.50;;;;;;;7.40;100.00;100535.84;5095053;28;20043;-74
2022/12/04 11:32:54;;;;;;;1.02;0.50;;;;;;;7.40;100.00;100548.81;5097819;28;20427;-73
2022/12/04 11:35:24;;;;;;;2.75;0.70;;;;;;;7.40;100.00;100543.63;5098274;28;20460;-73
2022/12/04 11:38:08;;;;;;;1.63;1.02;;;;;;;7.49;100.00;100542.06;5091835;28;20020;-74
2022/12/04 11:40:35;;;;;;;2.03;0.90;;;;;;;7.49;100.00;100542.91;5092607;28;20036;-74
2022/12/04 11:43:12;;;;;;;2.88;1.17;;;;;;;7.49;100.00;100545.50;5078178;28;20112;-74
2022/12/04 11:45:38;;;;;;;3.55;1.00;;;;;;;7.51;100.00;100553.97;5094668;28;20032;-73
2022/12/04 11:48:13;;;;;;;2.30;1.17;;;;;;;7.44;100.00;100555.41;5090367;28;20036;-73
2022/12/04 11:50:50;;;;;;;1.52;0.98;;;;;;;7.39;100.00;100552.34;5093389;28;20475;-73